Timeline UpdatesTrip UpdatesNews PostsPvt Posts♥♥Travel TipsAdmin PostsConv PostsFollowed PostsChat RequestsBlog PostsPNR Posts

Disclaimer
Search
 
 
Fri Oct 31, 2014 20:31:42 ISTHomeTrainsΣChainsAtlasPNRForumGalleryNewsFAQTripsMembersLoginFeedback
No Recent News for this Train
Other Trains in the News **new
Latest...
.
Thu Jul 24, 2014 (11:10PM)
⇐ Return Journey: Train# 19019

19020/Dehradun - Mumbai Bandra Terminus Express

Time-Table HAS CHANGED.
Sep 03 2014 (11:17AM)
Change Departure Station:
Change Arrival Station:
Post a Train Travel TipPost a Train Travel Tip **new
Post a Comment/Question/Picture/VideoPost a Comment/Question/Picture/Video
Pantry/Catering
✕ NO Pantry Car
✓ Catering Avbl
Loco/Rake Reversals
SRE/Saharanpur Junction (6); LRJ/Laksar Junction (4);
RSA - Rake Sharing
Rake/Coach Composition
LOCO-SLR-HCPV-GEN-GEN-AB1-S1-S2-S3-S4-S5-S6-S7-S8-S9-SLR
Loco
GZB WAP-7 NZM-BDTS. ddn to nzm tkd wdp 3a. By Er...
Read more...
Ankit Shotra Bhagat Entry# 595554
News    PNR    Forum    Time-Table    Availability    Fare Chart    Map    Arr/Dep History    Trips    Gallery    ΣChains    X/O    Timeline    
Travel Time: 2h 29m    -86 halts    Distance: 121 km    Avg Speed: 48 km/hr
Type: Mail/Express
Zone: WR/Western
Departs @ 00:38 (Avg 10m late)
Platform# ???
SMTWTFS
Vapi/VAPI 
Arrives @ 03:07
Platform# ???
SMTWTFS
Vasai Road/BSR 

-86 halts. 16 intermediate Stations between Vapi and Vasai Road

Show ALL intermediate Stations  Show Old Time-Table

#TrkCodeStation NameX/OArrivesAvgDepartsAvgHaltPFDay#KmSpeedElevZoneAddress
1%--%DDNDehradun (4)  -10:35 10:30+021-1524.938648mNRDehradun, Uttarakhand
2%--%DWODoiwala  11:04 11:01+311:06 11:03+42m--1-1505.141484mNRDehradun, Uttarakhand
3%--%RWLRaiwala Junction (2)X  11:38 11:33+911:40 11:35+172m21-1484.317361mNRRishikesh, Uttarakhand
4%--%MOTCMotichur (2)  12:00 11:58+812:02 12:00+142m11-1477.818312mNRHaridwar, Uttarakhand
5|--|HWHaridwar Junction (9)X  12:15+1212:45+1330m31-1473.248294mNRHaridwar, Uttarakhand
6%--%JWPJwalapurX  12:53 12:50+1712:55 12:52+202m--1-1469.220292mNRHaridwar, Uttarakhand
7%--%LRJLaksar Junction (4)XO14:00+2014:25+1825m--1-1446.353238mNRLaksar, Uttarakhand
8/==/RKRoorkee (3)X  14:43 14:45+1814:45 14:50+162 5m31-1428.546264mNRRoorkee - 247667, Uttarakhand
9/==/SRESaharanpur Junction (6)X15:35+1516:05+630m41-1393.848276mNRSaharanpur, Uttar Pradesh
10%--%DBDDeoband (2)  16:50 16:48+1716:52 16:50+192m21-1359.644258mNRSaharanpur, Uttar Pradesh
11%--%MOZMuzaffarnagar (3)X  17:20 17:23+1517:22 17:25+282m21-1335.663247mNRMuzaffarNagar, Uttar Pradesh
12%--%KATKhatauli (2)  17:42 17:46+3017:44 17:48+302m11-1313.476239mNRKhatauli, Uttar Pradesh
13%--%MUTMeerut Cantt. (2)  18:08 18:11+3618:10 18:13+362m11-1284.312230mNRMeerut, Uttar Pradesh
14%--%MTCMeerut City Junction (6)X18:35+2519:20+1145m41-1279.973229mNRMeerut, Uttar Pradesh
15%==%MDNRModinagar (2)X  19:34 19:36+1719:36 19:38+172m21-1260.555221mNRGhaziabad, Uttar Pradesh
16%==%MUDMuradnagar (2)X  19:45 19:49+1619:47 19:51+162m21-1250.459220mNRGhaziabad, Uttar Pradesh
17%==%GZNNew Ghaziabad (2)XO  20:02 20:03+820:04 20:05+82m21-1238.714213mNRGhaziabad, Uttar Pradesh
18%==%GZBGhaziabad Junction (6)XO  20:30 20:31+620:32 20:33+92m41-1232.734217mNRGhaziabad, Uttar Pradesh
19/==/SBBSahibabad Junction (5)X  20:41 20:45+1420:43 20:46+142 1m--1-1226.033209mNRGhaziabad, Uttar Pradesh
20/==/NZMDelhi Hazrat Nizamuddin (7)O21:15+1621:55+1540m11-1210.025209mNRNew Delhi 110013, Delhi NCT
21/==/TKDTuglakabad (2)XO  22:18+1122:20+142m11-1200.344213mNRNear Tughlakabad Metro Station, Delhi NCT
22/==/FDBFaridabad (4)O  22:44 22:35+1222:46 22:36+152 1m31-1189.235206mNRold Faridabad, Haryana
23/==/BVHBallabgarh (5)XO  22:58 22:50+1123:00 22:52+122m--1-1181.129203mNRFaridabad, Haryana
24/==/PWLPalwal (8)X  23:36+123:38+32m--1-1159.985200mNRPalwal, Haryana
25/==/KSVKosi Kalan (3)O  00:08+1900:10+192m22-1117.529189mNCRKosi Kalan, Uttar Pradesh
26/==/MTJMathura Junction (10)XO  01:35+001:45 01:40+410 5m32-1076.061179mNCRMathura, Uttar Pradesh
27/==/BTEBharatpur Junction (5)  02:10 02:13+202:15+55 2m--2-1042.584174mWCRBharatpur, Rajasthan
28/==/BXNBayana Junction (3)X  02:45+602:47+72m--2-1000.570198mWCRBayana, Rajasthan
29/==/HANHindaun City (2)  03:15+1203:17+142m--2-967.656230mWCRKarauli, Rajasthan
30/==/SMBJShri Mahabirji (3)O  03:26 03:28+1303:28 03:30+142m--2-957.541240mWCRKarauli, Rajasthan
31/==/GGCGangapur City (3)  04:10 04:20+004:20 04:25+510 5m--2-923.463270mWCRGangapur, Rajasthan
32/==/MLZMalarnaX  04:50 04:57+704:52 04:59+82m--2-889.686236mWCRSawai Madhopur, Rajasthan
33/==/SWMSawai Madhopur Junction (4)X  05:20+1305:25+135m--2-859.578266mWCRSawai Madhopur, Rajasthan
34/==/IDGIndargarh Sumerganj Mandi (2)X  05:48 05:53+1405:50 05:55+162m--2-823.266247mWCRIndargarh, Rajasthan
35/==/LKELakheri (3)  05:58 06:05+1706:00 06:07+172m--2-812.269228mWCRBundi, Rajasthan
36/==/KPTNKeshorai PatanXO  06:38 06:48+2006:40 06:50+212m--2-765.153243mWCRSH 33, Rajasthan
37/==/GQLGurlaO  06:48 06:59+2306:50 07:00+252 1m--2-757.211251mWCRSH 33, Rajasthan
38|--|KOTAKota Junction (5)X07:30+1107:50+1620m22-751.833256mWCRKota, Rajasthan
39/==/DKNTDakaniya Talav (2)  08:01 08:07+1508:03 08:08+172 1m22-742.479278mWCRKota, Rajasthan
40/==/DARADara  08:30 08:37+1808:32 08:39+202m--2-704.363354mWCRDara, Rajasthan
41/==/MKXMorak (2)X  08:48 08:53+2008:50 08:55+202m--2-689.642337mWCRMorak, Rajasthan
42/==/RMARamganj Mandi Junction (3)  09:03 09:08+1709:05 09:10+212m--2-680.557358mWCRRamganj Mandi, Rajasthan
43/==/JHWJhalawar Road (3)  09:18 09:23+2009:20 09:25+212m--2-668.155361mWCRJhalawar City, Rajasthan
44/==/BWMBhawani Mandi (3)  09:38 09:43+1809:40 09:45+242m--2-651.776384mWCRBhawani Mandi, Madhya Pradesh
45/==/GOHGaroth (2)X  09:58 10:03+2510:00 10:05+252m12-629.028441mWCRMadhya Pradesh 458880, Madhya Pradesh
46/==/SGZShamgarh (3)X  10:25 10:28+1410:30+215 2m--2-618.267463mWCRMandsaur, Madhya Pradesh
47/==/SVASuwasra (2)  10:42+2210:44+242m--2-604.766450mWCRSuwasra, Madhya Pradesh
48/==/CMUChau Mahla (3)  10:58+2411:00+252m12-589.435426mWCRJhalawar, Rajasthan
49/==/THURThuriaX  11:24+1511:26+172m--2-575.221430mWCRMDR 45, Madhya Pradesh
50/==/VMAVikramgarh Alot (2)X  11:48+711:50+142m12-567.561443mWCRKota Division, Madhya Pradesh
51/==/LNRLuni Richha  12:03+1412:05+152m--2-554.328471mWCRAlote, Madhya Pradesh
52/==/MEPMahidpur Road  12:28+512:30+72m--2-543.729493mWCRGogapur, Madhya Pradesh
53/==/NADNagda Junction (4)  13:05+613:15+710m--2-526.664468mWRNagda, Madhya Pradesh
54/==/KUHKhachrod (2)  13:26 13:28+1013:28 13:30+102m--2-512.857497mWRUjjain, Madhya Pradesh
55/==/RNHRunkheraX  13:39 13:41+913:41 13:42+102 1m--2-502.355478mWRUjjain, Madhya Pradesh
56/==/BODBangrodX  13:48 13:50+1113:50 13:51+112 1m--2-495.025484mWRRatlam, Madhya Pradesh
57/==/RTMRatlam Junction (7)X  14:15+714:35+920m42-485.270495mWRRatlam 457001, Madhya Pradesh
58/==/RTIRaoti (2)  14:56 14:58+1314:58 14:59+132 1m--2-458.265409mWRState Highway 39A, Madhya Pradesh
59/==/BOGBhairongarh (2)  15:08 15:10+1315:10 15:11+142 1m--2-446.445374mWRBhairongarh Railway Station, Madhya Pradesh
60/==/BMIBamnia (2)  15:17 15:19+1515:19 15:21+142m--2-440.442392mWRBamnia, Madhya Pradesh
61/==/AGRAmargarh (2)  15:25 15:27+1415:27 15:28+142 1m--2-436.252410mWRSH 39A, Madhya Pradesh
62/==/PCNPanch Pipila (2)  15:37 15:39+1415:39 15:40+142 1m--2-426.876369mWRSH 39A, Madhya Pradesh
63/==/THDRThandla Road (2)X  15:49 15:51+1615:51 15:53+162m--2-412.860317mWRJhabua, Madhya Pradesh
64/==/MGNMeghnagar (3)  15:59 16:01+1616:01 16:03+162m--2-404.973317mWRJhabua, Madhya Pradesh
65/==/ANASAnas (2)  16:13 16:15+1716:15 16:16+172 1m--2-390.368288mWRMadhya Pradesh 389154 ?, Madhya Pradesh
66/==/BIOBordi (2)  16:21 16:23+1716:23 16:24+172 1m--2-382.358289mWRNational Highway 59, Gujarat
67/==/DHDDahod (3)X  16:35+2216:40 16:37+255 2m--2-371.764313mWRDahod, Gujarat
68/==/LMKLimkheda  17:06 17:08+2617:08 17:09+272 1m--2-338.860205mWRLimkheda, Gujarat
69/==/PPDPiplod Junction  17:15 17:17+2717:17 17:19+272m--2-330.879209mWRPiplod, Gujarat
70/==/SATSant Road (2)X  17:26 17:28+2717:28 17:30+252m22-319.020169mWROrwara, Gujarat
71/==/GDAGodhra Junction (3)X  18:30+318:35+65m102-298.654122mWRGodhra, Gujarat
72/==/KRSAKharsaliya (2)  18:45 18:47+918:47 18:48+92 1m--2-287.876107mWRPanchmahal, Gujarat
73/==/DRLDerolX  18:56 18:58+1018:58 19:00+102m12-275.16881mWRKalol, Gujarat
74/==/CPNChampaner Road JunctionXO  19:09 19:11+919:11 19:13+92m--2-262.67578mWRPanchmahal, Gujarat
75/==/SMLASamlaya Junction (3)X  19:20 19:22+919:22 19:24+92m--2-251.45267mWRVadodara, Gujarat
76/==/BRCVadodara Junction (7)  19:55+2020:05+2010m32-224.78136mWRVadodara 390005, Gujarat
77/==/MYGMiyagam Karjan (2)  20:25 20:27+2620:27 20:28+262 1m--2-194.97029mWRKarjan, Gujarat
78/==/BHBharuch Junction (5)X  21:01 21:03+1921:03 21:05+192m42-154.26219mWRBharuch, Gujarat
79/==/AKVAnkleshwar Junction (4)X  21:12 21:14+1721:14 21:16+172m22-144.99319mWRAnkleshwar, Gujarat
80/==/KSBKosamba Junction (3)X21:29 21:28+2521:31 21:30+232m--2-126.33130mWRKosamba, Gujarat
81/==/STSurat (4)X  22:30+622:38+78m22-94.97419mWRSurat 395001, Gujarat
82/==/NVSNavsari (3)  23:03 23:02+1323:05+132 3m--2-65.37914mWRNavsari, Gujarat
83/==/BIMBilimora Junction (4)X  23:21+1823:23+182m--2-44.23611mWRBilimora, Gujarat
84/==/BLValsad (3)  23:53+1323:55+202m32-26.23815mWRValsad, Gujarat
85/==/VAPIVapi (3)X  00:36+800:38+102m--30.06827mWRVapi, Gujarat
86/==/PLGPalghar (3)X  02:04 01:50+2002:06 02:02+172 12m--381.53519mWRPalghar, Maharashtra
87/==/VRVirar (8)  02:56+302:58+52m--3112.7536mWRDist. Palghar, Maharashtra
88/==/BVIMumbai Borivali (8)  03:30 03:27+303:32+42 5m53138.52319mWRMumbai - 400092, Maharashtra
89/==/BDTSMumbai Bandra Terminus (5)  04:20-3-13157.2-4mWRMumbai 400050, Maharashtra
Scroll to Top
Scroll to Bottom